createdAt,value
2018-10-01T00:00:46.031Z,12.67
2018-10-01T00:03:16.887Z,12.66
2018-10-01T00:05:47.187Z,12.64
2018-10-01T00:08:17.765Z,12.66
2018-10-01T00:10:48.380Z,12.66
2018-10-01T00:13:19.778Z,12.66
2018-10-01T00:15:51.084Z,12.71
2018-10-01T00:18:21.892Z,12.74
2018-10-01T00:20:57.350Z,12.74
2018-10-01T00:23:27.641Z,12.78
2018-10-01T00:25:58.263Z,12.84
2018-10-01T00:28:28.440Z,12.84
2018-10-01T00:30:59.097Z,12.88
2018-10-01T00:33:28.584Z,12.89
2018-10-01T00:35:58.555Z,12.90
2018-10-01T00:38:28.411Z,12.89
2018-10-01T00:40:58.574Z,12.83
2018-10-01T00:43:28.270Z,12.80
2018-10-01T00:45:57.824Z,12.84
2018-10-01T00:48:28.113Z,12.86
2018-10-01T00:50:59.535Z,12.87
2018-10-01T00:53:30.443Z,12.88
2018-10-01T00:56:00.460Z,12.83
2018-10-01T00:58:31.013Z,12.78
2018-10-01T01:01:01.184Z,12.69
2018-10-01T01:03:31.281Z,12.75
2018-10-01T01:06:01.556Z,12.70
2018-10-01T01:08:32.062Z,12.73
2018-10-01T01:11:02.142Z,12.79
2018-10-01T01:13:32.219Z,12.80
2018-10-01T01:16:02.233Z,12.83
2018-10-01T01:18:32.119Z,12.87
2018-10-01T01:21:02.640Z,12.81
2018-10-01T01:23:32.970Z,12.70
2018-10-01T01:26:02.846Z,12.69
2018-10-01T01:28:32.442Z,12.71
2018-10-01T01:31:02.457Z,12.72
2018-10-01T01:33:32.795Z,12.75
2018-10-01T01:36:02.480Z,12.77
2018-10-01T01:38:35.304Z,12.74
2018-10-01T01:41:07.040Z,12.76
2018-10-01T01:43:40.219Z,12.78
2018-10-01T01:46:11.313Z,12.81
2018-10-01T01:48:44.075Z,12.82
2018-10-01T01:51:16.978Z,12.79
2018-10-01T01:53:49.506Z,12.67
2018-10-01T01:56:19.077Z,12.41
2018-10-01T01:58:52.287Z,12.41
2018-10-01T02:01:25.186Z,12.48
2018-10-01T02:03:54.688Z,12.47
2018-10-01T02:06:24.203Z,12.46
2018-10-01T02:08:56.827Z,12.36
2018-10-01T02:11:30.005Z,12.39
2018-10-01T02:14:01.161Z,12.34
2018-10-01T02:16:34.309Z,12.33
2018-10-01T02:19:05.983Z,12.37
2018-10-01T02:21:39.032Z,12.34
2018-10-01T02:24:10.586Z,12.30
2018-10-01T02:26:44.092Z,12.31
2018-10-01T02:29:13.768Z,12.35
2018-10-01T02:31:43.322Z,12.35
2018-10-01T02:34:12.833Z,12.33
2018-10-01T02:36:42.367Z,12.32
2018-10-01T02:39:13.472Z,12.35
2018-10-01T02:41:43.047Z,12.33
2018-10-01T02:44:12.630Z,12.33
2018-10-01T02:46:42.127Z,12.35
2018-10-01T02:49:11.889Z,12.33
2018-10-01T02:51:46.613Z,12.32
2018-10-01T02:54:21.489Z,12.29
2018-10-01T02:56:51.018Z,12.29
2018-10-01T02:59:20.533Z,12.25
2018-10-01T03:01:50.078Z,12.22
2018-10-01T03:04:19.650Z,12.15
2018-10-01T03:06:49.555Z,12.10
2018-10-01T03:09:19.081Z,12.09
2018-10-01T03:11:48.609Z,12.08
2018-10-01T03:14:18.201Z,12.06
2018-10-01T03:16:47.676Z,12.07
2018-10-01T03:19:17.175Z,11.96
2018-10-01T03:21:47.002Z,11.98
2018-10-01T03:24:16.726Z,11.95
2018-10-01T03:26:46.248Z,11.98
2018-10-01T03:29:15.713Z,11.91
2018-10-01T03:31:45.267Z,11.95
2018-10-01T03:34:14.768Z,11.96
2018-10-01T03:36:44.329Z,11.98
2018-10-01T03:39:13.842Z,11.93
2018-10-01T03:41:43.341Z,11.91
2018-10-01T03:44:12.841Z,11.85
2018-10-01T03:46:42.402Z,11.79
2018-10-01T03:49:11.981Z,11.84
2018-10-01T03:51:41.511Z,11.89
2018-10-01T03:54:11.035Z,11.86
2018-10-01T03:56:40.629Z,11.88
2018-10-01T03:59:10.329Z,11.85
2018-10-01T04:01:39.864Z,11.83
2018-10-01T04:04:09.806Z,11.77
2018-10-01T04:06:39.309Z,11.77
2018-10-01T04:09:10.212Z,11.79
2018-10-01T04:11:39.717Z,11.80
2018-10-01T04:14:09.587Z,11.79
2018-10-01T04:16:39.165Z,11.77
2018-10-01T04:19:08.782Z,11.69
2018-10-01T04:21:38.536Z,11.62
2018-10-01T04:24:08.038Z,11.51
2018-10-01T04:26:37.541Z,11.55
2018-10-01T04:29:07.739Z,11.56
2018-10-01T04:31:37.247Z,11.53
2018-10-01T04:34:06.792Z,11.38
2018-10-01T04:36:36.325Z,11.44
2018-10-01T04:39:10.085Z,11.39
2018-10-01T04:41:40.033Z,11.47
2018-10-01T04:44:09.906Z,11.48
2018-10-01T04:46:40.492Z,11.44
2018-10-01T04:49:11.319Z,11.45
2018-10-01T04:51:42.325Z,11.44
2018-10-01T04:54:11.941Z,11.52
2018-10-01T04:56:41.453Z,11.53
2018-10-01T04:59:10.942Z,11.57
2018-10-01T05:01:40.482Z,11.55
2018-10-01T05:04:09.994Z,11.54
2018-10-01T05:06:39.763Z,11.54
2018-10-01T05:09:10.384Z,11.58
2018-10-01T05:11:39.933Z,11.60
2018-10-01T05:14:09.482Z,11.60
2018-10-01T05:16:39.069Z,11.60
2018-10-01T05:19:08.704Z,11.60
2018-10-01T05:21:38.445Z,11.58
2018-10-01T05:24:08.046Z,11.56
2018-10-01T05:26:37.569Z,11.58
2018-10-01T05:29:07.353Z,11.43
2018-10-01T05:31:36.861Z,11.45
2018-10-01T05:34:06.979Z,11.52
2018-10-01T05:36:36.713Z,11.48
2018-10-01T05:39:11.481Z,11.51
2018-10-01T05:41:41.102Z,11.48
2018-10-01T05:44:10.655Z,11.41
2018-10-01T05:46:40.194Z,11.34
2018-10-01T05:49:09.781Z,11.31
2018-10-01T05:51:39.501Z,11.37
2018-10-01T05:54:09.085Z,11.41
2018-10-01T05:56:38.582Z,11.46
2018-10-01T05:59:08.674Z,11.48
2018-10-01T06:01:38.213Z,11.41
2018-10-01T06:04:08.211Z,11.43
2018-10-01T06:06:37.797Z,11.44
2018-10-01T06:09:10.583Z,11.39
2018-10-01T06:11:40.226Z,11.39
2018-10-01T06:14:10.621Z,11.26
2018-10-01T06:16:40.406Z,11.27
2018-10-01T06:19:09.926Z,11.19
2018-10-01T06:21:39.536Z,11.25
2018-10-01T06:24:09.153Z,11.29
2018-10-01T06:26:38.708Z,11.28
2018-10-01T06:29:08.243Z,11.10
2018-10-01T06:31:38.140Z,11.19
2018-10-01T06:34:07.677Z,11.13
2018-10-01T06:36:37.254Z,11.14
2018-10-01T06:39:09.878Z,11.13
2018-10-01T06:41:39.820Z,11.10
2018-10-01T06:44:10.027Z,11.15
2018-10-01T06:46:39.568Z,11.18
2018-10-01T06:49:09.082Z,11.16
2018-10-01T06:51:38.682Z,11.14
2018-10-01T06:54:08.222Z,11.03
2018-10-01T06:56:37.737Z,11.01
2018-10-01T06:59:07.247Z,10.98
2018-10-01T07:01:36.898Z,10.94
2018-10-01T07:04:06.493Z,11.05
2018-10-01T07:06:36.026Z,11.09
2018-10-01T07:09:09.621Z,11.05
2018-10-01T07:11:41.361Z,11.00
2018-10-01T07:14:11.097Z,11.06
2018-10-01T07:16:40.696Z,11.08
2018-10-01T07:19:10.874Z,11.12
2018-10-01T07:21:40.607Z,11.10
2018-10-01T07:24:10.232Z,11.12
2018-10-01T07:26:39.885Z,11.27
2018-10-01T07:29:09.553Z,11.24
2018-10-01T07:31:39.181Z,11.29
2018-10-01T07:34:08.684Z,11.27
2018-10-01T07:36:38.323Z,11.37
2018-10-01T07:39:08.940Z,11.46
2018-10-01T07:41:38.509Z,11.50
2018-10-01T07:44:08.467Z,11.59
2018-10-01T07:46:38.037Z,11.62
2018-10-01T07:49:07.971Z,11.72
2018-10-01T07:51:37.697Z,11.84
2018-10-01T07:54:07.920Z,12.00
2018-10-01T07:56:37.630Z,12.13
2018-10-01T07:59:07.354Z,12.09
2018-10-01T08:01:36.892Z,12.19
2018-10-01T08:04:06.843Z,12.20
2018-10-01T08:06:36.378Z,12.32
2018-10-01T08:09:09.581Z,12.41
2018-10-01T08:11:39.613Z,12.42
2018-10-01T08:14:09.519Z,12.44
2018-10-01T08:16:39.198Z,12.45
2018-10-01T08:19:08.774Z,12.55
2018-10-01T08:21:38.377Z,12.49
2018-10-01T08:24:08.259Z,12.40
2018-10-01T08:26:37.772Z,12.43
2018-10-01T08:29:07.853Z,12.45
2018-10-01T08:31:37.566Z,12.38
2018-10-01T08:34:07.425Z,12.34
2018-10-01T08:36:36.988Z,12.43
2018-10-01T08:39:12.657Z,12.56
2018-10-01T08:41:42.557Z,12.62
2018-10-01T08:44:13.151Z,12.66
2018-10-01T08:46:42.846Z,12.78
2018-10-01T08:49:22.207Z,12.77
2018-10-01T08:52:30.357Z,12.74
2018-10-01T08:54:59.866Z,12.78
2018-10-01T08:57:29.374Z,12.66
2018-10-01T08:59:58.898Z,12.71
2018-10-01T09:02:28.614Z,12.80
2018-10-01T09:04:58.417Z,12.82
2018-10-01T09:07:28.151Z,12.95
2018-10-01T09:09:59.188Z,13.09
2018-10-01T09:12:28.774Z,13.17
2018-10-01T09:14:58.341Z,13.37
2018-10-01T09:17:28.127Z,13.36
2018-10-01T09:19:57.794Z,13.29
2018-10-01T09:22:27.521Z,13.40
2018-10-01T09:24:57.027Z,13.43
2018-10-01T09:27:26.549Z,13.59
2018-10-01T09:29:56.066Z,13.57
2018-10-01T09:32:25.729Z,13.49
2018-10-01T09:34:55.441Z,13.46
2018-10-01T09:37:25.006Z,13.47
2018-10-01T09:39:54.555Z,13.49
2018-10-01T09:42:24.236Z,13.68
2018-10-01T09:44:53.850Z,13.75
2018-10-01T09:47:23.366Z,13.77
2018-10-01T09:49:52.875Z,13.71
2018-10-01T09:52:22.875Z,13.65
2018-10-01T09:54:52.574Z,13.69
2018-10-01T09:57:22.141Z,13.75
2018-10-01T09:59:51.652Z,13.75
2018-10-01T10:02:21.166Z,13.83
2018-10-01T10:04:51.065Z,13.88
2018-10-01T10:07:21.044Z,13.85
2018-10-01T10:09:50.580Z,13.87
2018-10-01T10:12:20.313Z,13.84
2018-10-01T10:14:49.804Z,13.94
2018-10-01T10:17:19.362Z,14.00
2018-10-01T10:19:49.454Z,14.29
2018-10-01T10:22:19.391Z,14.41
2018-10-01T10:24:49.221Z,14.34
2018-10-01T10:27:18.792Z,14.29
2018-10-01T10:29:48.326Z,14.14
2018-10-01T10:32:17.852Z,13.98
2018-10-01T10:34:47.398Z,13.98
2018-10-01T10:37:16.941Z,13.97
2018-10-01T10:39:46.426Z,13.95
2018-10-01T10:42:15.996Z,13.90
2018-10-01T10:44:45.503Z,13.91
2018-10-01T10:47:15.014Z,13.96
2018-10-01T10:49:44.557Z,14.03
2018-10-01T10:52:14.102Z,14.09
2018-10-01T10:54:43.648Z,14.29
2018-10-01T10:57:13.594Z,14.35
2018-10-01T10:59:43.163Z,14.21
2018-10-01T11:02:12.758Z,14.25
2018-10-01T11:04:42.906Z,14.10
2018-10-01T11:07:12.474Z,13.81
2018-10-01T11:09:42.142Z,13.61
2018-10-01T11:12:11.710Z,13.44
2018-10-01T11:14:41.657Z,13.42
2018-10-01T11:17:11.336Z,13.53
2018-10-01T11:19:41.306Z,13.62
2018-10-01T11:22:10.969Z,13.84
2018-10-01T11:24:40.459Z,14.03
2018-10-01T11:27:10.054Z,13.81
2018-10-01T11:29:40.068Z,13.12
2018-10-01T11:32:09.581Z,12.43
2018-10-01T11:34:39.474Z,11.97
2018-10-01T11:37:09.141Z,11.87
2018-10-01T11:39:38.707Z,11.96
2018-10-01T11:42:09.064Z,12.08
2018-10-01T11:44:38.834Z,11.92
2018-10-01T11:47:08.733Z,11.84
2018-10-01T11:49:38.190Z,11.81
2018-10-01T11:52:08.308Z,11.89
2018-10-01T11:54:37.843Z,11.99
2018-10-01T11:57:07.618Z,12.07
2018-10-01T11:59:37.280Z,12.19
2018-10-01T12:02:06.815Z,12.30
2018-10-01T12:04:36.284Z,12.34
2018-10-01T12:07:05.896Z,12.41
2018-10-01T12:09:35.549Z,12.36
2018-10-01T12:12:05.113Z,12.16
2018-10-01T12:14:34.628Z,11.91
2018-10-01T12:17:04.299Z,11.70
2018-10-01T12:19:33.853Z,11.40
2018-10-01T12:22:03.479Z,11.25
2018-10-01T12:24:33.037Z,11.37
2018-10-01T12:27:02.700Z,11.35
2018-10-01T12:29:32.458Z,11.28
2018-10-01T12:32:02.037Z,11.25
2018-10-01T12:34:31.563Z,11.05
2018-10-01T12:37:01.091Z,11.01
2018-10-01T12:39:30.641Z,10.98
2018-10-01T12:42:00.432Z,10.87
2018-10-01T12:44:31.329Z,10.83
2018-10-01T12:47:00.902Z,10.88
2018-10-01T12:49:30.411Z,10.93
2018-10-01T12:51:59.971Z,11.12
2018-10-01T12:54:29.496Z,11.19
2018-10-01T12:56:59.342Z,11.25
2018-10-01T12:59:28.856Z,11.36
2018-10-01T13:01:58.553Z,11.57
2018-10-01T13:04:28.237Z,11.63
2018-10-01T13:06:57.757Z,11.74
2018-10-01T13:09:27.284Z,11.74
2018-10-01T13:11:57.134Z,11.89
2018-10-01T13:14:26.726Z,12.00
2018-10-01T13:16:56.241Z,12.11
2018-10-01T13:19:25.798Z,12.16
2018-10-01T13:21:55.309Z,12.22
2018-10-01T13:24:24.944Z,12.11
2018-10-01T13:26:54.763Z,11.93
2018-10-01T13:29:24.487Z,11.75
2018-10-01T13:31:54.123Z,11.52
2018-10-01T13:34:23.861Z,11.35
2018-10-01T13:36:53.392Z,11.17
2018-10-01T13:39:23.309Z,11.11
2018-10-01T13:41:52.826Z,11.10
2018-10-01T13:44:22.544Z,11.03
2018-10-01T13:46:52.622Z,11.03
2018-10-01T13:49:22.183Z,11.04
2018-10-01T13:51:51.697Z,11.00
2018-10-01T13:54:21.292Z,10.89
2018-10-01T13:56:51.042Z,11.04
2018-10-01T13:59:20.577Z,11.13
2018-10-01T14:01:50.182Z,11.23
2018-10-01T14:04:19.940Z,11.36
2018-10-01T14:06:49.519Z,11.51
2018-10-01T14:09:19.210Z,11.62
2018-10-01T14:11:48.952Z,11.66
2018-10-01T14:14:18.481Z,11.69
2018-10-01T14:16:48.222Z,11.76
2018-10-01T14:19:18.054Z,11.82
2018-10-01T14:21:47.697Z,11.84
2018-10-01T14:24:17.284Z,11.95
2018-10-01T14:26:46.986Z,11.99
2018-10-01T14:29:16.497Z,12.06
2018-10-01T14:31:46.015Z,12.04
2018-10-01T14:34:15.506Z,11.98
2018-10-01T14:36:45.203Z,11.83
2018-10-01T14:39:15.337Z,11.83
2018-10-01T14:41:44.961Z,11.81
2018-10-01T14:44:14.546Z,11.72
2018-10-01T14:46:44.071Z,11.60
2018-10-01T14:49:13.571Z,11.50
2018-10-01T14:51:43.105Z,11.45
2018-10-01T14:54:12.851Z,11.52
2018-10-01T14:56:42.376Z,11.57
2018-10-01T14:59:11.977Z,11.71
2018-10-01T15:01:41.778Z,11.67
2018-10-01T15:04:11.310Z,11.62
2018-10-01T15:06:40.892Z,11.65
2018-10-01T15:09:11.885Z,11.60
2018-10-01T15:11:41.497Z,11.62
2018-10-01T15:14:11.665Z,11.63
2018-10-01T15:16:41.465Z,11.58
2018-10-01T15:19:11.276Z,11.37
2018-10-01T15:21:40.767Z,11.25
2018-10-01T15:24:10.266Z,11.14
2018-10-01T15:26:39.925Z,11.06
2018-10-01T15:29:09.438Z,10.98
2018-10-01T15:31:39.009Z,10.90
2018-10-01T15:34:08.537Z,10.79
2018-10-01T15:36:38.112Z,10.82
2018-10-01T15:39:10.025Z,10.80
2018-10-01T15:41:39.549Z,10.74
2018-10-01T15:44:09.136Z,10.74
2018-10-01T15:46:38.997Z,10.81
2018-10-01T15:49:08.515Z,10.68
2018-10-01T15:51:38.197Z,10.78
2018-10-01T15:54:07.721Z,10.73
2018-10-01T15:56:38.166Z,10.84
2018-10-01T15:59:07.956Z,10.81
2018-10-01T16:01:37.955Z,10.75
2018-10-01T16:04:08.178Z,10.69
2018-10-01T16:06:37.721Z,10.60
2018-10-01T16:09:10.340Z,10.46
2018-10-01T16:11:40.250Z,10.52
2018-10-01T16:14:11.413Z,10.51
2018-10-01T16:16:42.011Z,10.52
2018-10-01T16:19:11.574Z,10.49
2018-10-01T16:21:41.375Z,10.55
2018-10-01T16:24:10.929Z,10.60
2018-10-01T16:26:41.487Z,10.49
2018-10-01T16:29:11.563Z,10.51
2018-10-01T16:31:41.167Z,10.63
2018-10-01T16:34:10.779Z,10.68
2018-10-01T16:36:40.306Z,10.65
2018-10-01T16:39:12.361Z,10.70
2018-10-01T16:41:42.379Z,10.66
2018-10-01T16:44:11.956Z,10.71
2018-10-01T16:46:42.249Z,10.66
2018-10-01T16:49:11.831Z,10.60
2018-10-01T16:51:41.571Z,10.59
2018-10-01T16:54:11.270Z,10.49
2018-10-01T16:56:40.747Z,10.39
2018-10-01T16:59:10.245Z,10.35
2018-10-01T17:01:39.783Z,10.26
2018-10-01T17:04:09.533Z,10.21
2018-10-01T17:06:39.027Z,10.18
2018-10-01T17:09:09.801Z,10.09
2018-10-01T17:11:39.298Z,9.92
2018-10-01T17:14:08.946Z,9.86
2018-10-01T17:16:38.457Z,9.83
2018-10-01T17:19:08.285Z,9.89
2018-10-01T17:21:38.039Z,9.85
2018-10-01T17:24:07.882Z,9.84
2018-10-01T17:26:37.369Z,9.86
2018-10-01T17:29:07.233Z,9.82
2018-10-01T17:31:36.722Z,9.76
2018-10-01T17:34:06.237Z,9.77
2018-10-01T17:36:36.069Z,9.74
2018-10-01T17:39:09.738Z,9.70
2018-10-01T17:41:39.997Z,9.72
2018-10-01T17:44:09.741Z,9.74
2018-10-01T17:46:39.473Z,9.64
2018-10-01T17:49:09.049Z,9.56
2018-10-01T17:51:38.664Z,9.57
2018-10-01T17:54:08.617Z,9.58
2018-10-01T17:56:38.325Z,9.60
2018-10-01T17:59:07.794Z,9.64
2018-10-01T18:01:37.301Z,9.53
2018-10-01T18:04:07.450Z,9.58
2018-10-01T18:06:37.133Z,9.52
2018-10-01T18:09:10.686Z,9.52
2018-10-01T18:11:40.303Z,9.53
2018-10-01T18:14:10.317Z,9.53
2018-10-01T18:16:40.582Z,9.49
2018-10-01T18:19:10.065Z,9.51
2018-10-01T18:21:39.622Z,9.39
2018-10-01T18:24:11.654Z,9.40
2018-10-01T18:26:41.329Z,9.40
2018-10-01T18:29:11.958Z,9.32
2018-10-01T18:31:42.761Z,9.41
2018-10-01T18:34:13.496Z,9.38
2018-10-01T18:36:44.365Z,9.35
2018-10-01T18:39:19.807Z,9.30
2018-10-01T18:41:50.011Z,9.30
2018-10-01T18:44:22.938Z,9.26
2018-10-01T18:46:53.842Z,9.29
2018-10-01T18:49:26.387Z,9.41
2018-10-01T18:51:55.882Z,9.40
2018-10-01T18:54:28.171Z,9.40
2018-10-01T18:56:57.677Z,9.40
2018-10-01T18:59:27.244Z,9.24
2018-10-01T19:01:57.181Z,9.18
2018-10-01T19:04:29.257Z,9.22
2018-10-01T19:06:59.805Z,9.14
2018-10-01T19:09:30.198Z,9.14
2018-10-01T19:12:01.024Z,9.12
2018-10-01T19:14:32.349Z,9.19
2018-10-01T19:17:02.398Z,9.16
2018-10-01T19:19:32.304Z,9.10
2018-10-01T19:22:03.882Z,9.12
2018-10-01T19:24:34.202Z,9.19
2018-10-01T19:27:04.926Z,9.24
2018-10-01T19:29:34.514Z,9.23
2018-10-01T19:32:07.343Z,9.24
2018-10-01T19:34:37.081Z,9.22
2018-10-01T19:37:10.455Z,9.24
2018-10-01T19:39:43.382Z,9.27
2018-10-01T19:42:15.964Z,9.33
2018-10-01T19:44:45.873Z,9.33
2018-10-01T19:47:18.804Z,9.26
2018-10-01T19:49:50.799Z,9.21
2018-10-01T19:52:24.281Z,9.23
2018-10-01T19:54:57.048Z,9.16
2018-10-01T19:57:30.317Z,9.17
2018-10-01T20:00:03.362Z,9.22
2018-10-01T20:02:36.142Z,9.18
2018-10-01T20:05:09.725Z,9.10
2018-10-01T20:07:40.222Z,9.03
2018-10-01T20:10:12.944Z,8.99
2018-10-01T20:12:45.706Z,8.89
2018-10-01T20:15:15.324Z,8.89
2018-10-01T20:17:48.737Z,8.80
2018-10-01T20:20:20.749Z,8.91
2018-10-01T20:22:51.849Z,8.99
2018-10-01T20:25:24.237Z,9.04
2018-10-01T20:27:56.889Z,9.03
2018-10-01T20:30:29.090Z,8.93
2018-10-01T20:33:01.579Z,8.99
2018-10-01T20:35:35.170Z,8.84
2018-10-01T20:38:05.108Z,8.84
2018-10-01T20:40:40.324Z,8.90
2018-10-01T20:43:13.411Z,8.98
2018-10-01T20:45:46.512Z,9.05
2018-10-01T20:48:19.376Z,9.09
2018-10-01T20:50:48.966Z,9.12
2018-10-01T20:53:21.859Z,9.18
2018-10-01T20:55:55.075Z,9.15
2018-10-01T20:58:26.531Z,9.03
2018-10-01T21:00:59.829Z,9.04
2018-10-01T21:03:32.958Z,9.05
2018-10-01T21:06:04.136Z,9.05
2018-10-01T21:08:38.219Z,9.06
2018-10-01T21:11:11.334Z,9.06
2018-10-01T21:13:42.305Z,9.01
2018-10-01T21:16:12.113Z,8.96
2018-10-01T21:18:45.177Z,8.96
2018-10-01T21:21:18.493Z,8.94
2018-10-01T21:23:50.495Z,8.88
2018-10-01T21:26:20.086Z,8.90
2018-10-01T21:28:52.384Z,8.88
2018-10-01T21:31:25.147Z,8.86
2018-10-01T21:33:57.569Z,8.83
2018-10-01T21:36:30.879Z,8.88
2018-10-01T21:39:01.744Z,8.93
2018-10-01T21:41:31.197Z,8.94
2018-10-01T21:44:00.758Z,8.95
2018-10-01T21:46:32.778Z,8.88
2018-10-01T21:49:02.295Z,8.87
2018-10-01T21:51:34.154Z,8.86
2018-10-01T21:54:06.363Z,8.86
2018-10-01T21:56:36.003Z,8.87
2018-10-01T21:59:07.262Z,8.87
2018-10-01T22:01:38.371Z,8.85
2018-10-01T22:04:13.658Z,8.83
2018-10-01T22:06:46.050Z,8.83
2018-10-01T22:09:18.764Z,8.82
2018-10-01T22:11:48.755Z,8.78
2018-10-01T22:14:19.929Z,8.78
2018-10-01T22:16:51.700Z,8.74
2018-10-01T22:19:21.321Z,8.72
2018-10-01T22:21:50.857Z,8.72
2018-10-01T22:24:20.373Z,8.72
2018-10-01T22:26:50.479Z,8.69
2018-10-01T22:29:22.402Z,8.71
2018-10-01T22:31:52.169Z,8.75
2018-10-01T22:34:21.967Z,8.78
2018-10-01T22:36:51.512Z,8.77
2018-10-01T22:39:21.137Z,8.79
2018-10-01T22:41:50.592Z,8.78
2018-10-01T22:44:20.136Z,8.81
2018-10-01T22:46:49.637Z,8.75
2018-10-01T22:49:19.138Z,8.78
2018-10-01T22:51:48.637Z,8.76
2018-10-01T22:54:18.097Z,8.70
2018-10-01T22:56:47.608Z,8.75
2018-10-01T22:59:18.642Z,8.77
2018-10-01T23:01:48.761Z,8.75
2018-10-01T23:04:18.232Z,8.75
2018-10-01T23:06:47.718Z,8.74
2018-10-01T23:09:17.233Z,8.72
2018-10-01T23:11:46.855Z,8.71
2018-10-01T23:14:16.354Z,8.70
2018-10-01T23:16:45.804Z,8.69
2018-10-01T23:19:15.328Z,8.71
2018-10-01T23:21:44.823Z,8.63
2018-10-01T23:24:14.345Z,8.59
2018-10-01T23:26:43.897Z,8.59
2018-10-01T23:29:13.436Z,8.59
2018-10-01T23:31:45.077Z,8.62
2018-10-01T23:34:14.752Z,8.62
2018-10-01T23:36:45.896Z,8.58
2018-10-01T23:39:15.501Z,8.56
2018-10-01T23:41:45.150Z,8.59
2018-10-01T23:44:14.721Z,8.60
2018-10-01T23:46:44.553Z,8.67
2018-10-01T23:49:14.497Z,8.66
2018-10-01T23:51:43.984Z,8.68
2018-10-01T23:54:13.630Z,8.75
2018-10-01T23:56:43.137Z,8.75
2018-10-01T23:59:12.621Z,8.76
